Time;durP1;ratioP1;P1;durP2;ratioP2;P2;SDS_P1;SDS_P2;PMS_P1;PMS_P2;Temp;Humidity;BMP_temperature;BMP_pressure;BME280_temperature;BME280_humidity;BME280_pressure;Samples;Min_cycle;Max_cycle;Signal;HPM_P1;HPM_P2
2022/04/23 00:00:50;;;;;;;12.13;7.20;;;;;;;;;;2098346;28;20132;-43
2022/04/23 00:01:51;;;;;;;14.00;7.18;;;;;;;;;;2098053;28;20056;-44
2022/04/23 00:02:53;;;;;;;11.77;6.20;;;;;;;;;;2098146;28;20094;-44
2022/04/23 00:03:54;;;;;;;10.73;6.00;;;;;;;;;;2098040;28;20552;-43
2022/04/23 00:04:55;;;;;;;12.75;7.05;;;;;;;;;;2098191;28;20124;-44
2022/04/23 00:05:58;;;;;;;12.38;6.80;;;;;;;;;;2098095;28;20045;-44
2022/04/23 00:06:58;;;;;;;11.20;6.18;;;;;;;;;;2098179;28;20131;-44
2022/04/23 00:08:00;;;;;;;11.90;6.33;;;;;;;;;;2098117;28;20079;-44
2022/04/23 00:09:01;;;;;;;12.77;6.72;;;;;;;;;;2098064;28;20139;-44
2022/04/23 00:10:02;;;;;;;13.85;7.47;;;;;;;;;;2098050;28;20136;-44
2022/04/23 00:11:03;;;;;;;12.18;7.03;;;;;;;;;;2098219;28;20178;-44
2022/04/23 00:12:04;;;;;;;11.52;6.90;;;;;;;;;;2098056;28;20079;-44
2022/04/23 00:13:06;;;;;;;11.75;7.00;;;;;;;;;;2097951;28;20131;-43
2022/04/23 00:14:07;;;;;;;10.95;6.68;;;;;;;;;;2097966;28;20055;-44
2022/04/23 00:15:08;;;;;;;12.77;6.43;;;;;;;;;;2098208;28;20135;-62
2022/04/23 00:16:10;;;;;;;11.93;6.63;;;;;;;;;;2098153;28;20048;-62
2022/04/23 00:17:11;;;;;;;11.57;6.43;;;;;;;;;;2097921;28;20044;-63
2022/04/23 00:18:12;;;;;;;11.23;6.17;;;;;;;;;;2098167;28;20295;-62
2022/04/23 00:19:13;;;;;;;10.63;6.03;;;;;;;;;;2097718;28;20451;-62
2022/04/23 00:20:15;;;;;;;11.97;6.30;;;;;;;;;;2098131;28;20140;-62
2022/04/23 00:21:18;;;;;;;12.20;6.78;;;;;;;;;;2097914;28;20058;-62
2022/04/23 00:22:19;;;;;;;9.88;6.13;;;;;;;;;;2098100;28;20071;-62
2022/04/23 00:23:20;;;;;;;10.95;6.78;;;;;;;;;;2098136;28;20566;-62
2022/04/23 00:24:21;;;;;;;12.60;5.93;;;;;;;;;;2097971;28;20080;-62
2022/04/23 00:25:22;;;;;;;11.82;6.78;;;;;;;;;;2097915;28;20535;-63
2022/04/23 00:26:24;;;;;;;13.98;6.93;;;;;;;;;;2098060;28;20063;-62
2022/04/23 00:27:25;;;;;;;12.50;6.70;;;;;;;;;;2097973;28;20411;-62
2022/04/23 00:28:26;;;;;;;11.50;6.87;;;;;;;;;;2097927;28;20041;-62
2022/04/23 00:29:28;;;;;;;11.18;6.93;;;;;;;;;;2098138;28;20127;-63
2022/04/23 00:30:29;;;;;;;12.57;6.55;;;;;;;;;;2097922;28;20131;-63
2022/04/23 00:31:30;;;;;;;13.95;7.82;;;;;;;;;;2098036;28;20122;-63
2022/04/23 00:32:32;;;;;;;11.48;6.60;;;;;;;;;;2097896;28;20052;-63
2022/04/23 00:33:34;;;;;;;13.73;7.20;;;;;;;;;;2097683;28;20131;-63
2022/04/23 00:34:35;;;;;;;;;;;;;;;;;;2098363;28;20044;-63
2022/04/23 00:35:36;;;;;;;11.63;7.15;;;;;;;;;;2097962;28;19966;-63
2022/04/23 00:36:39;;;;;;;13.00;6.97;;;;;;;;;;2098021;28;20230;-63
2022/04/23 00:37:39;;;;;;;13.05;6.70;;;;;;;;;;2097941;28;20123;-63
2022/04/23 00:38:42;;;;;;;13.57;7.27;;;;;;;;;;2097748;28;20473;-63
2022/04/23 00:39:43;;;;;;;11.48;6.45;;;;;;;;;;2097825;28;20127;-63
2022/04/23 00:40:44;;;;;;;13.57;7.40;;;;;;;;;;2097858;28;20597;-63
2022/04/23 00:41:46;;;;;;;12.87;6.93;;;;;;;;;;2097826;28;20059;-63
2022/04/23 00:42:48;;;;;;;10.80;6.72;;;;;;;;;;2097856;28;20159;-63
2022/04/23 00:43:49;;;;;;;15.18;7.05;;;;;;;;;;2097706;28;20490;-62
2022/04/23 00:44:50;;;;;;;13.48;6.70;;;;;;;;;;2097795;28;20136;-63
2022/04/23 00:45:51;;;;;;;12.30;6.53;;;;;;;;;;2097786;28;20524;-62
2022/04/23 00:46:52;;;;;;;10.43;6.00;;;;;;;;;;2097918;28;20072;-63
2022/04/23 00:47:54;;;;;;;11.67;6.47;;;;;;;;;;2097742;28;20052;-64
2022/04/23 00:48:54;;;;;;;12.93;6.00;;;;;;;;;;2097901;28;20135;-63
2022/04/23 00:49:56;;;;;;;12.00;5.95;;;;;;;;;;2097922;28;20409;-63
2022/04/23 00:50:57;;;;;;;10.07;6.30;;;;;;;;;;2097794;28;20040;-64
2022/04/23 00:51:59;;;;;;;10.38;6.32;;;;;;;;;;2097946;28;20181;-63
2022/04/23 00:53:00;;;;;;;;;;;;;;;;;;2105141;28;20530;-63
2022/04/23 00:54:04;;;;;;;10.55;6.60;;;;;;;;;;2106005;28;20053;-63
2022/04/23 00:55:05;;;;;;;13.00;6.05;;;;;;;;;;2106265;28;20254;-44
2022/04/23 00:56:07;;;;;;;11.25;6.43;;;;;;;;;;2106170;28;20187;-43
2022/04/23 00:57:09;;;;;;;11.38;6.13;;;;;;;;;;2106143;28;20116;-44
2022/04/23 00:58:10;;;;;;;11.38;6.05;;;;;;;;;;2106071;28;20487;-44
2022/04/23 00:59:12;;;;;;;10.77;6.27;;;;;;;;;;2106108;28;20052;-44
2022/04/23 01:00:13;;;;;;;12.43;6.75;;;;;;;;;;2106122;28;20082;-44
2022/04/23 01:01:15;;;;;;;11.35;6.13;;;;;;;;;;2106289;28;20054;-44
2022/04/23 01:02:16;;;;;;;11.25;7.20;;;;;;;;;;2106208;28;20040;-44
2022/04/23 01:03:17;;;;;;;11.52;6.70;;;;;;;;;;2106182;28;20048;-44
2022/04/23 01:04:19;;;;;;;11.93;6.40;;;;;;;;;;2106009;28;20097;-44
2022/04/23 01:05:22;;;;;;;11.82;5.93;;;;;;;;;;2106193;28;20131;-43
2022/04/23 01:06:23;;;;;;;9.93;5.55;;;;;;;;;;2106016;28;20416;-44
2022/04/23 01:07:25;;;;;;;11.65;6.03;;;;;;;;;;2106066;28;20408;-44
2022/04/23 01:08:26;;;;;;;9.80;5.97;;;;;;;;;;2105995;28;20485;-44
2022/04/23 01:09:27;;;;;;;8.80;5.15;;;;;;;;;;2106126;28;20127;-44
2022/04/23 01:10:29;;;;;;;11.88;6.25;;;;;;;;;;2106131;28;20040;-44
2022/04/23 01:11:29;;;;;;;9.98;5.72;;;;;;;;;;2104964;28;20128;-44
2022/04/23 01:12:31;;;;;;;11.82;5.45;;;;;;;;;;2106152;28;20491;-44
2022/04/23 01:13:33;;;;;;;10.05;5.93;;;;;;;;;;2106053;28;20135;-63
2022/04/23 01:14:34;;;;;;;9.93;5.90;;;;;;;;;;2106041;28;20047;-63
2022/04/23 01:15:35;;;;;;;9.75;5.93;;;;;;;;;;2105940;28;20040;-63
2022/04/23 01:16:36;;;;;;;9.87;5.87;;;;;;;;;;2106007;28;20056;-63
2022/04/23 01:17:38;;;;;;;8.52;5.57;;;;;;;;;;2105998;28;20176;-63
2022/04/23 01:18:40;;;;;;;9.25;5.82;;;;;;;;;;2103022;28;24607;-64
2022/04/23 01:19:41;;;;;;;10.07;5.50;;;;;;;;;;2097546;28;20454;-63
2022/04/23 01:20:43;;;;;;;9.90;5.17;;;;;;;;;;2097757;28;20082;-63
2022/04/23 01:21:44;;;;;;;9.30;5.25;;;;;;;;;;2097664;28;20049;-63
2022/04/23 01:22:45;;;;;;;10.00;5.53;;;;;;;;;;2097588;28;20044;-63
2022/04/23 01:23:47;;;;;;;8.57;4.93;;;;;;;;;;2097579;28;20183;-63
2022/04/23 01:24:50;;;;;;;9.20;5.15;;;;;;;;;;2097637;28;20048;-63
2022/04/23 01:25:52;;;;;;;10.98;5.50;;;;;;;;;;2097521;28;20143;-63
2022/04/23 01:26:54;;;;;;;9.55;5.35;;;;;;;;;;2097503;28;20147;-63
2022/04/23 01:27:55;;;;;;;8.20;5.07;;;;;;;;;;2097662;28;20048;-63
2022/04/23 01:28:57;;;;;;;10.20;5.07;;;;;;;;;;2097415;28;20131;-63
2022/04/23 01:29:58;;;;;;;7.93;4.78;;;;;;;;;;2097650;28;20132;-62
2022/04/23 01:30:59;;;;;;;10.03;5.50;;;;;;;;;;2097511;28;20060;-63
2022/04/23 01:32:02;;;;;;;9.00;4.20;;;;;;;;;;2097657;28;20132;-62
2022/04/23 01:33:04;;;;;;;9.73;5.57;;;;;;;;;;2097308;28;20162;-63
2022/04/23 01:34:05;;;;;;;7.88;5.70;;;;;;;;;;2097576;28;20070;-64
2022/04/23 01:35:06;;;;;;;9.03;4.90;;;;;;;;;;2097415;28;20490;-63
2022/04/23 01:36:08;;;;;;;8.18;5.10;;;;;;;;;;2097431;28;20433;-62
2022/04/23 01:37:09;;;;;;;8.88;5.18;;;;;;;;;;2097477;28;20131;-63
2022/04/23 01:38:10;;;;;;;9.38;5.20;;;;;;;;;;2097426;28;20079;-63
2022/04/23 01:39:11;;;;;;;8.27;4.77;;;;;;;;;;2097571;28;20063;-62
2022/04/23 01:40:12;;;;;;;7.53;5.00;;;;;;;;;;2097439;28;20071;-63
2022/04/23 01:41:14;;;;;;;9.20;5.13;;;;;;;;;;2097361;28;20143;-64
2022/04/23 01:42:17;;;;;;;8.77;5.00;;;;;;;;;;2097519;28;20131;-62
2022/04/23 01:43:19;;;;;;;8.07;4.88;;;;;;;;;;2097580;28;20123;-62
2022/04/23 01:44:20;;;;;;;11.30;5.68;;;;;;;;;;2097308;28;20162;-62
2022/04/23 01:45:21;;;;;;;8.03;5.13;;;;;;;;;;2097527;28;20056;-62
2022/04/23 01:46:22;;;;;;;8.75;4.90;;;;;;;;;;2097474;28;20372;-62
2022/04/23 01:47:23;;;;;;;6.47;4.45;;;;;;;;;;2097404;28;20048;-62
2022/04/23 01:48:24;;;;;;;8.68;4.95;;;;;;;;;;2097227;28;20474;-62
2022/04/23 01:49:25;;;;;;;7.30;4.60;;;;;;;;;;2105712;28;20036;-62
2022/04/23 01:50:26;;;;;;;6.63;4.30;;;;;;;;;;2105715;28;20131;-62
2022/04/23 01:51:28;;;;;;;9.10;5.57;;;;;;;;;;2105775;28;20036;-63
2022/04/23 01:52:29;;;;;;;8.50;4.50;;;;;;;;;;2105867;28;20131;-63
2022/04/23 01:53:30;;;;;;;8.43;4.97;;;;;;;;;;2105558;28;20048;-62
2022/04/23 01:54:32;;;;;;;7.95;4.55;;;;;;;;;;2105746;28;20534;-64
2022/04/23 01:55:33;;;;;;;8.48;5.10;;;;;;;;;;2105784;28;20071;-63
2022/04/23 01:56:34;;;;;;;9.00;5.03;;;;;;;;;;2105648;28;20485;-62
2022/04/23 01:57:35;;;;;;;9.07;4.82;;;;;;;;;;2105723;28;20127;-62
2022/04/23 01:58:36;;;;;;;6.68;4.45;;;;;;;;;;2105734;28;20043;-62
2022/04/23 01:59:37;;;;;;;10.40;4.90;;;;;;;;;;2105694;28;20040;-63
2022/04/23 02:00:39;;;;;;;8.38;4.65;;;;;;;;;;2105663;28;20119;-63
2022/04/23 02:01:41;;;;;;;8.52;4.90;;;;;;;;;;2105703;28;20048;-62
2022/04/23 02:02:42;;;;;;;;;;;;;;;;;;2106101;28;20117;-63
2022/04/23 02:03:43;;;;;;;7.40;4.32;;;;;;;;;;2105730;28;20365;-62
2022/04/23 02:04:44;;;;;;;9.57;4.88;;;;;;;;;;2105625;28;20513;-63
2022/04/23 02:05:45;;;;;;;9.38;5.00;;;;;;;;;;2105777;28;20083;-62
2022/04/23 02:06:47;;;;;;;10.05;5.18;;;;;;;;;;2105647;28;20594;-62
2022/04/23 02:07:48;;;;;;;8.27;4.45;;;;;;;;;;2105682;28;20592;-62
2022/04/23 02:08:49;;;;;;;6.57;4.55;;;;;;;;;;2105594;28;20131;-62
2022/04/23 02:09:51;;;;;;;7.32;4.85;;;;;;;;;;2105638;28;20044;-62
2022/04/23 02:10:52;;;;;;;7.15;4.38;;;;;;;;;;2105768;28;20130;-62
2022/04/23 02:11:53;;;;;;;7.53;4.43;;;;;;;;;;2105638;28;20044;-61
2022/04/23 02:12:54;;;;;;;11.18;5.50;;;;;;;;;;2105734;28;20048;-62
2022/04/23 02:13:56;;;;;;;7.07;4.35;;;;;;;;;;2105500;28;20567;-61
2022/04/23 02:14:57;;;;;;;8.60;4.60;;;;;;;;;;2105788;28;20044;-62
2022/04/23 02:15:58;;;;;;;6.22;4.18;;;;;;;;;;2105719;28;20070;-62
2022/04/23 02:16:59;;;;;;;8.20;5.32;;;;;;;;;;2105612;28;20076;-61
2022/04/23 02:18:00;;;;;;;9.82;4.97;;;;;;;;;;2105669;28;20056;-61
2022/04/23 02:19:03;;;;;;;10.60;4.43;;;;;;;;;;2099372;28;20131;-61
2022/04/23 02:20:05;;;;;;;7.50;4.75;;;;;;;;;;2097157;28;20584;-62
2022/04/23 02:21:06;;;;;;;9.30;4.90;;;;;;;;;;2097299;28;20141;-61
2022/04/23 02:22:08;;;;;;;6.38;4.38;;;;;;;;;;2097234;28;20135;-61
2022/04/23 02:23:09;;;;;;;8.32;4.30;;;;;;;;;;2096889;28;20178;-63
2022/04/23 02:24:10;;;;;;;8.30;4.70;;;;;;;;;;2097238;28;20502;-63
2022/04/23 02:25:11;;;;;;;7.90;4.63;;;;;;;;;;2097237;28;20059;-64
2022/04/23 02:26:12;;;;;;;7.05;4.45;;;;;;;;;;2097297;28;20500;-65
2022/04/23 02:27:13;;;;;;;9.75;5.45;;;;;;;;;;2097301;28;20127;-65
2022/04/23 02:28:14;;;;;;;5.70;4.22;;;;;;;;;;2097258;28;20057;-63
2022/04/23 02:29:15;;;;;;;9.27;4.65;;;;;;;;;;2097105;28;20513;-62
2022/04/23 02:30:17;;;;;;;7.93;4.75;;;;;;;;;;2097357;28;20040;-63
2022/04/23 02:31:18;;;;;;;7.63;4.38;;;;;;;;;;2097305;28;20052;-62
2022/04/23 02:32:20;;;;;;;8.57;4.82;;;;;;;;;;2097193;28;20072;-62
2022/04/23 02:33:21;;;;;;;6.97;4.90;;;;;;;;;;2097164;28;20058;-63
2022/04/23 02:34:22;;;;;;;9.13;4.88;;;;;;;;;;2097097;28;20049;-62
2022/04/23 02:35:23;;;;;;;7.72;4.88;;;;;;;;;;2097159;28;20417;-64
2022/04/23 02:36:24;;;;;;;7.57;4.68;;;;;;;;;;2097149;28;20076;-64
2022/04/23 02:37:26;;;;;;;9.63;4.85;;;;;;;;;;2097290;28;20127;-62
2022/04/23 02:38:28;;;;;;;7.20;4.70;;;;;;;;;;2097036;28;20044;-62
2022/04/23 02:39:29;;;;;;;10.13;4.70;;;;;;;;;;2097243;28;20097;-65
2022/04/23 02:40:31;;;;;;;6.67;4.27;;;;;;;;;;2097255;28;20106;-64
2022/04/23 02:41:31;;;;;;;9.02;4.90;;;;;;;;;;2097206;28;20420;-67
2022/04/23 02:42:33;;;;;;;8.13;5.20;;;;;;;;;;2097277;28;20127;-64
2022/04/23 02:43:36;;;;;;;7.80;5.00;;;;;;;;;;2096966;28;20072;-64
2022/04/23 02:44:37;;;;;;;8.32;4.80;;;;;;;;;;2097205;28;20086;-63
2022/04/23 02:45:38;;;;;;;8.50;4.97;;;;;;;;;;2105135;28;20040;-65
2022/04/23 02:46:39;;;;;;;7.95;4.88;;;;;;;;;;2105551;28;20048;-66
2022/04/23 02:47:41;;;;;;;7.72;5.78;;;;;;;;;;2105375;28;20490;-65
2022/04/23 02:48:42;;;;;;;8.48;5.15;;;;;;;;;;2105473;28;20054;-64
2022/04/23 02:49:43;;;;;;;9.05;5.40;;;;;;;;;;2105350;28;20401;-66
2022/04/23 02:50:45;;;;;;;12.15;5.05;;;;;;;;;;2105384;28;20048;-66
2022/04/23 02:51:46;;;;;;;8.45;4.97;;;;;;;;;;2105486;28;20135;-67
2022/04/23 02:52:47;;;;;;;8.07;4.68;;;;;;;;;;2105506;28;20052;-66
2022/04/23 02:53:49;;;;;;;8.52;5.50;;;;;;;;;;2105211;28;20131;-65
2022/04/23 02:54:50;;;;;;;8.95;4.78;;;;;;;;;;2105571;28;20051;-65
2022/04/23 02:55:56;;;;;;;9.70;4.82;;;;;;;;;;2105590;28;20138;-66
2022/04/23 02:56:57;;;;;;;9.35;5.45;;;;;;;;;;2105326;28;20135;-67
2022/04/23 02:58:00;;;;;;;7.80;4.80;;;;;;;;;;2105532;28;20086;-66
2022/04/23 02:59:02;;;;;;;8.75;5.30;;;;;;;;;;2105317;28;20048;-66
2022/04/23 03:00:04;;;;;;;;;;;;;;;;;;2105929;28;20054;-67
2022/04/23 03:01:06;;;;;;;9.07;4.65;;;;;;;;;;2104764;28;20010;-66
2022/04/23 03:02:07;;;;;;;10.10;5.80;;;;;;;;;;2104834;28;20214;-66
2022/04/23 03:03:09;;;;;;;10.02;6.03;;;;;;;;;;2104604;28;20082;-67
2022/04/23 03:04:11;;;;;;;9.57;5.50;;;;;;;;;;2104676;28;20076;-64
2022/04/23 03:05:12;;;;;;;8.00;4.80;;;;;;;;;;2103701;28;20180;-64
2022/04/23 03:06:14;;;;;;;7.45;5.15;;;;;;;;;;2097145;28;20195;-65
2022/04/23 03:07:15;;;;;;;9.48;5.60;;;;;;;;;;2097003;28;20135;-64
2022/04/23 03:08:17;;;;;;;9.67;4.90;;;;;;;;;;2096943;28;20093;-67
2022/04/23 03:09:18;;;;;;;8.98;5.40;;;;;;;;;;2096993;28;20054;-66
2022/04/23 03:10:19;;;;;;;10.10;5.20;;;;;;;;;;2097179;28;20052;-67
2022/04/23 03:11:20;;;;;;;8.20;5.13;;;;;;;;;;2096991;28;20055;-64
2022/04/23 03:12:22;;;;;;;10.57;5.43;;;;;;;;;;2097057;28;20057;-65
2022/04/23 03:13:24;;;;;;;7.75;4.95;;;;;;;;;;2097242;28;20373;-66
2022/04/23 03:14:25;;;;;;;7.85;5.35;;;;;;;;;;2096822;28;20423;-66
2022/04/23 03:15:26;;;;;;;8.73;5.53;;;;;;;;;;2097022;28;20055;-66
2022/04/23 03:16:27;;;;;;;10.30;5.95;;;;;;;;;;2097024;28;20128;-66
2022/04/23 03:17:28;;;;;;;10.57;5.85;;;;;;;;;;2096991;28;20378;-66
2022/04/23 03:18:29;;;;;;;8.40;5.32;;;;;;;;;;2096874;28;20135;-44
2022/04/23 03:19:30;;;;;;;8.53;5.30;;;;;;;;;;2096976;28;20041;-43
2022/04/23 03:20:32;;;;;;;9.88;5.32;;;;;;;;;;2096900;28;20131;-43
2022/04/23 03:21:33;;;;;;;7.43;5.00;;;;;;;;;;2096920;28;20131;-44
2022/04/23 03:22:34;;;;;;;9.88;4.88;;;;;;;;;;2097078;28;20127;-43
2022/04/23 03:23:36;;;;;;;9.82;5.95;;;;;;;;;;2096800;28;20409;-44
2022/04/23 03:24:38;;;;;;;8.80;5.03;;;;;;;;;;2096933;28;20127;-48
2022/04/23 03:25:41;;;;;;;9.15;5.13;;;;;;;;;;2096921;28;20055;-43
2022/04/23 03:26:43;;;;;;;;;;;;;;;;;;2097382;28;20053;-43
2022/04/23 03:27:44;;;;;;;8.55;5.50;;;;;;;;;;2096890;28;20480;-44
2022/04/23 03:28:45;;;;;;;9.55;5.10;;;;;;;;;;2097201;28;20041;-43
2022/04/23 03:29:46;;;;;;;7.53;4.90;;;;;;;;;;2097025;28;20477;-44
2022/04/23 03:30:47;;;;;;;7.38;5.22;;;;;;;;;;2096860;28;20123;-44
2022/04/23 03:31:50;;;;;;;8.25;4.88;;;;;;;;;;2097095;28;20139;-43
2022/04/23 03:32:51;;;;;;;8.10;5.22;;;;;;;;;;2096831;28;20484;-43
2022/04/23 03:33:52;;;;;;;7.47;4.83;;;;;;;;;;2096642;28;20049;-44
2022/04/23 03:34:53;;;;;;;7.95;5.00;;;;;;;;;;2097654;28;20368;-43
2022/04/23 03:35:54;;;;;;;8.40;5.27;;;;;;;;;;2098459;28;20131;-44
2022/04/23 03:36:55;;;;;;;9.00;5.55;;;;;;;;;;2098259;28;20304;-44
2022/04/23 03:37:56;;;;;;;8.85;5.70;;;;;;;;;;2098440;28;20048;-44
2022/04/23 03:38:59;;;;;;;12.82;5.43;;;;;;;;;;2098239;28;20045;-44
2022/04/23 03:40:00;;;;;;;10.25;5.32;;;;;;;;;;2098255;28;20631;-43
2022/04/23 03:41:02;;;;;;;9.70;5.10;;;;;;;;;;2099239;28;20059;-44
2022/04/23 03:42:03;;;;;;;7.75;5.28;;;;;;;;;;2106517;28;20128;-43
2022/04/23 03:43:05;;;;;;;8.45;5.03;;;;;;;;;;2106618;28;20092;-43
2022/04/23 03:44:06;;;;;;;9.77;4.93;;;;;;;;;;2106581;28;20523;-44
2022/04/23 03:45:09;;;;;;;9.93;4.90;;;;;;;;;;2106925;28;20059;-44
2022/04/23 03:46:11;;;;;;;7.97;5.22;;;;;;;;;;2106657;28;20119;-44
2022/04/23 03:47:13;;;;;;;8.57;4.95;;;;;;;;;;2106558;28;20421;-43
2022/04/23 03:48:14;;;;;;;9.65;5.75;;;;;;;;;;2106634;28;20127;-44
2022/04/23 03:49:15;;;;;;;9.18;5.38;;;;;;;;;;2106689;28;20096;-44
2022/04/23 03:50:16;;;;;;;9.10;5.22;;;;;;;;;;2106572;28;20048;-44
2022/04/23 03:51:18;;;;;;;8.23;5.15;;;;;;;;;;2106571;28;20507;-44
2022/04/23 03:52:18;;;;;;;7.57;4.85;;;;;;;;;;2106707;28;20127;-43
2022/04/23 03:53:20;;;;;;;7.65;5.00;;;;;;;;;;2106425;28;20047;-43
2022/04/23 03:54:21;;;;;;;7.28;4.53;;;;;;;;;;2106830;28;20071;-44
2022/04/23 03:55:24;;;;;;;7.05;4.57;;;;;;;;;;2106533;28;20564;-44
2022/04/23 03:56:25;;;;;;;10.00;5.57;;;;;;;;;;2106645;28;20066;-43
2022/04/23 03:57:26;;;;;;;6.87;4.57;;;;;;;;;;2106541;28;20071;-43
2022/04/23 03:58:28;;;;;;;9.32;5.85;;;;;;;;;;2106499;28;20359;-44
2022/04/23 03:59:30;;;;;;;;;;;;;;;;;;2106934;28;20066;-43
2022/04/23 04:00:31;;;;;;;9.02;5.07;;;;;;;;;;2106678;28;19928;-44
2022/04/23 04:01:32;;;;;;;8.93;5.00;;;;;;;;;;2106610;28;20043;-44
2022/04/23 04:02:33;;;;;;;9.02;5.43;;;;;;;;;;2106547;28;20304;-43
2022/04/23 04:03:35;;;;;;;9.65;5.40;;;;;;;;;;2106404;28;20531;-44
2022/04/23 04:04:36;;;;;;;10.50;5.68;;;;;;;;;;2106464;28;20443;-43
2022/04/23 04:05:38;;;;;;;9.52;5.18;;;;;;;;;;2106479;28;20070;-44
2022/04/23 04:06:39;;;;;;;8.65;4.97;;;;;;;;;;2106468;28;20123;-43
2022/04/23 04:07:42;;;;;;;8.35;4.63;;;;;;;;;;2106569;28;20123;-44
2022/04/23 04:08:43;;;;;;;7.38;4.78;;;;;;;;;;2106301;28;20116;-44
2022/04/23 04:09:45;;;;;;;10.07;5.23;;;;;;;;;;2106446;28;20079;-43
2022/04/23 04:10:46;;;;;;;10.27;5.72;;;;;;;;;;2106375;28;20127;-44
2022/04/23 04:12:02;;;;;;;8.65;5.32;;;;;;;;;;2106461;28;20072;-44
2022/04/23 04:13:03;;;;;;;12.32;5.45;;;;;;;;;;2106534;28;20127;-44
2022/04/23 04:14:04;;;;;;;10.02;5.43;;;;;;;;;;2106263;28;20556;-43
2022/04/23 04:15:06;;;;;;;7.93;4.80;;;;;;;;;;2106478;28;20102;-44
2022/04/23 04:16:07;;;;;;;9.82;5.30;;;;;;;;;;2106360;28;20117;-44
2022/04/23 04:17:09;;;;;;;9.53;5.60;;;;;;;;;;2106349;28;20558;-44
2022/04/23 04:18:11;;;;;;;9.05;5.32;;;;;;;;;;2106507;28;20356;-43
2022/04/23 04:19:14;;;;;;;8.80;4.95;;;;;;;;;;2098909;28;20056;-44
2022/04/23 04:20:15;;;;;;;9.32;5.45;;;;;;;;;;2097926;28;20131;-44
2022/04/23 04:21:16;;;;;;;9.48;5.28;;;;;;;;;;2098078;28;20136;-44
2022/04/23 04:22:18;;;;;;;8.43;4.77;;;;;;;;;;2098073;28;20516;-44
2022/04/23 04:23:20;;;;;;;9.85;4.68;;;;;;;;;;2098090;28;20132;-44
2022/04/23 04:24:21;;;;;;;8.07;4.75;;;;;;;;;;2098014;28;20050;-43
2022/04/23 04:25:22;;;;;;;9.55;5.50;;;;;;;;;;2098014;28;20135;-44
2022/04/23 04:26:24;;;;;;;8.50;4.88;;;;;;;;;;2098047;28;20127;-44
2022/04/23 04:27:25;;;;;;;9.43;5.22;;;;;;;;;;2098126;28;20135;-43
2022/04/23 04:28:26;;;;;;;9.25;4.88;;;;;;;;;;2098058;28;20056;-44
2022/04/23 04:29:27;;;;;;;8.70;5.47;;;;;;;;;;2098057;28;20040;-43
2022/04/23 04:31:46;;;;;;;8.18;4.80;;;;;;;;;;2098036;28;20040;-44
2022/04/23 04:31:50;;;;;;;8.35;4.70;;;;;;;;;;2098115;28;20046;-44
2022/04/23 04:32:51;;;;;;;8.35;5.63;;;;;;;;;;2098042;28;20113;-44
2022/04/23 04:33:52;;;;;;;7.80;5.20;;;;;;;;;;2097758;28;20450;-44
2022/04/23 04:34:53;;;;;;;9.63;5.53;;;;;;;;;;2098080;28;20052;-44
2022/04/23 04:35:54;;;;;;;8.38;4.65;;;;;;;;;;2097874;28;20148;-44
2022/04/23 04:37:06;;;;;;;10.50;5.78;;;;;;;;;;2098088;28;20055;-44
2022/04/23 04:38:07;;;;;;;9.10;4.95;;;;;;;;;;2105854;28;20075;-44
2022/04/23 04:39:08;;;;;;;8.35;4.78;;;;;;;;;;2106156;28;20535;-44
2022/04/23 04:40:10;;;;;;;8.03;4.90;;;;;;;;;;2101874;28;20063;-44
2022/04/23 04:41:12;;;;;;;11.60;5.80;;;;;;;;;;2098098;28;20503;-64
2022/04/23 04:42:14;;;;;;;;;;;;;;;;;;2098265;28;20113;-65
2022/04/23 04:43:15;;;;;;;9.05;5.20;;;;;;;;;;2097874;28;20441;-66
2022/04/23 04:44:16;;;;;;;8.50;5.50;;;;;;;;;;2097925;28;20259;-67
2022/04/23 04:45:17;;;;;;;7.88;5.55;;;;;;;;;;2097868;28;20290;-65
2022/04/23 04:46:18;;;;;;;8.98;5.43;;;;;;;;;;2097902;28;20044;-66
2022/04/23 04:47:20;;;;;;;10.52;5.32;;;;;;;;;;2097841;28;20076;-65
2022/04/23 04:48:21;;;;;;;7.93;4.88;;;;;;;;;;2097991;28;20483;-65
2022/04/23 04:49:22;;;;;;;8.87;5.40;;;;;;;;;;2097721;28;20109;-64
2022/04/23 04:50:23;;;;;;;8.75;5.00;;;;;;;;;;2097957;28;20049;-64
2022/04/23 04:51:24;;;;;;;9.55;5.50;;;;;;;;;;2097843;28;20124;-64
2022/04/23 04:52:26;;;;;;;8.00;4.97;;;;;;;;;;2097807;28;20505;-65
2022/04/23 04:53:30;;;;;;;10.40;5.88;;;;;;;;;;2097604;28;20494;-64
2022/04/23 04:54:31;;;;;;;8.50;5.53;;;;;;;;;;2097811;28;20048;-65
2022/04/23 04:55:34;;;;;;;10.45;5.68;;;;;;;;;;2097822;28;20052;-66
2022/04/23 04:56:35;;;;;;;;;;;;;;;;;;2098157;28;20401;-65
2022/04/23 04:57:36;;;;;;;11.18;6.05;;;;;;;;;;2097680;28;20391;-65
2022/04/23 04:58:38;;;;;;;;;;;;;;;;;;2098268;28;20044;-65
2022/04/23 04:59:39;;;;;;;10.73;5.30;;;;;;;;;;2097877;28;20343;-64
2022/04/23 05:00:40;;;;;;;7.32;4.97;;;;;;;;;;2097793;28;20174;-63
2022/04/23 05:01:41;;;;;;;9.57;5.97;;;;;;;;;;2097858;28;20127;-63
2022/04/23 05:02:42;;;;;;;8.88;6.07;;;;;;;;;;2097676;28;20060;-63
2022/04/23 05:03:43;;;;;;;7.78;5.03;;;;;;;;;;2097783;28;20051;-64
2022/04/23 05:04:45;;;;;;;8.68;4.70;;;;;;;;;;2097645;28;20049;-64
2022/04/23 05:05:46;;;;;;;8.60;5.03;;;;;;;;;;2097767;28;20131;-65
2022/04/23 05:06:47;;;;;;;9.90;6.50;;;;;;;;;;2097796;28;20052;-64
2022/04/23 05:07:48;;;;;;;9.85;5.75;;;;;;;;;;2097689;28;20504;-64
2022/04/23 05:08:49;;;;;;;10.07;6.30;;;;;;;;;;2097620;28;20052;-63
2022/04/23 05:09:50;;;;;;;9.05;6.28;;;;;;;;;;2097580;28;20132;-63
2022/04/23 05:10:51;;;;;;;10.40;5.53;;;;;;;;;;2097653;28;20141;-63
2022/04/23 05:11:53;;;;;;;8.40;5.20;;;;;;;;;;2097577;28;20084;-63
2022/04/23 05:12:54;;;;;;;8.88;5.50;;;;;;;;;;2097759;28;20080;-63
2022/04/23 05:13:55;;;;;;;7.88;5.35;;;;;;;;;;2097440;28;20480;-63
2022/04/23 05:14:56;;;;;;;9.15;5.68;;;;;;;;;;2097850;28;20052;-63
2022/04/23 05:15:58;;;;;;;9.65;5.93;;;;;;;;;;2097651;28;20084;-63
2022/04/23 05:16:59;;;;;;;9.20;5.47;;;;;;;;;;2097736;28;20127;-63
2022/04/23 05:18:00;;;;;;;9.17;5.87;;;;;;;;;;2097642;28;20055;-64
2022/04/23 05:19:02;;;;;;;10.27;5.38;;;;;;;;;;2097347;28;20486;-64
2022/04/23 05:20:03;;;;;;;11.43;5.93;;;;;;;;;;2097593;28;20063;-64
2022/04/23 05:21:04;;;;;;;10.23;6.07;;;;;;;;;;2097499;28;20097;-64
2022/04/23 05:22:05;;;;;;;9.48;5.05;;;;;;;;;;2097649;28;20127;-64
2022/04/23 05:23:06;;;;;;;10.30;6.47;;;;;;;;;;2097559;28;20140;-64
2022/04/23 05:24:08;;;;;;;10.40;5.28;;;;;;;;;;2097426;28;20052;-63
2022/04/23 05:25:09;;;;;;;8.32;5.78;;;;;;;;;;2097813;28;20074;-63
2022/04/23 05:26:10;;;;;;;9.32;5.82;;;;;;;;;;2097586;28;20136;-63
2022/04/23 05:27:11;;;;;;;10.50;5.82;;;;;;;;;;2097726;28;20048;-63
2022/04/23 05:28:13;;;;;;;8.18;4.70;;;;;;;;;;2097619;28;20048;-64
2022/04/23 05:29:14;;;;;;;8.40;5.10;;;;;;;;;;2097488;28;20138;-64
2022/04/23 05:30:15;;;;;;;9.60;5.53;;;;;;;;;;2097514;28;20495;-65
2022/04/23 05:31:16;;;;;;;8.35;5.07;;;;;;;;;;2097642;28;20048;-65
2022/04/23 05:32:17;;;;;;;9.25;5.55;;;;;;;;;;2097499;28;20310;-63
2022/04/23 05:33:18;;;;;;;9.50;5.43;;;;;;;;;;2097618;28;20076;-65
2022/04/23 05:34:19;;;;;;;9.55;5.50;;;;;;;;;;2104901;28;20048;-63
2022/04/23 05:35:20;;;;;;;9.27;5.32;;;;;;;;;;2105959;28;20079;-63
2022/04/23 05:36:22;;;;;;;9.50;5.03;;;;;;;;;;2105994;28;20110;-63
2022/04/23 05:37:23;;;;;;;9.27;5.35;;;;;;;;;;2105946;28;20135;-64
2022/04/23 05:38:24;;;;;;;9.13;5.50;;;;;;;;;;2106006;28;20512;-44
2022/04/23 05:39:25;;;;;;;7.20;5.30;;;;;;;;;;2105876;28;20125;-44
2022/04/23 05:40:26;;;;;;;8.73;5.87;;;;;;;;;;2105781;28;20566;-44
2022/04/23 05:41:28;;;;;;;11.80;6.20;;;;;;;;;;2106389;28;20051;-57
2022/04/23 05:42:28;;;;;;;9.07;5.28;;;;;;;;;;2105940;28;20039;-44
2022/04/23 05:43:30;;;;;;;9.53;6.00;;;;;;;;;;2105656;28;20426;-44
2022/04/23 05:44:31;;;;;;;11.18;5.70;;;;;;;;;;2105753;28;20048;-44
2022/04/23 05:45:33;;;;;;;8.47;4.83;;;;;;;;;;2105734;28;20044;-44
2022/04/23 05:46:34;;;;;;;9.65;5.90;;;;;;;;;;2105884;28;20048;-44
2022/04/23 05:47:38;;;;;;;8.98;5.30;;;;;;;;;;2105987;28;20042;-44
2022/04/23 05:48:40;;;;;;;8.88;5.18;;;;;;;;;;2105894;28;20048;-44
2022/04/23 05:49:41;;;;;;;8.73;5.05;;;;;;;;;;2105724;28;20126;-44
2022/04/23 05:50:57;;;;;;;9.98;5.40;;;;;;;;;;2105753;28;20075;-44
2022/04/23 05:51:58;;;;;;;8.35;5.20;;;;;;;;;;2105882;28;20078;-44
2022/04/23 05:52:59;;;;;;;8.53;5.20;;;;;;;;;;2105753;28;20433;-44
2022/04/23 05:54:01;;;;;;;10.13;5.70;;;;;;;;;;2105731;28;20047;-44
2022/04/23 05:55:06;;;;;;;10.32;5.25;;;;;;;;;;2105734;28;20044;-44
2022/04/23 05:56:07;;;;;;;8.43;5.20;;;;;;;;;;2105873;28;20127;-43
2022/04/23 05:57:08;;;;;;;9.48;5.88;;;;;;;;;;2105203;28;20489;-44
2022/04/23 05:58:09;;;;;;;9.20;4.97;;;;;;;;;;2105521;28;20332;-44
2022/04/23 05:59:11;;;;;;;7.90;5.07;;;;;;;;;;2105537;28;20178;-44
2022/04/23 06:00:12;;;;;;;8.60;4.88;;;;;;;;;;2105698;28;20450;-44
2022/04/23 06:01:14;;;;;;;8.88;4.90;;;;;;;;;;2105656;28;20054;-44
2022/04/23 06:02:16;;;;;;;10.43;4.90;;;;;;;;;;2105931;28;20090;-63
2022/04/23 06:03:17;;;;;;;9.07;5.80;;;;;;;;;;2105665;28;20056;-64
2022/04/23 06:04:19;;;;;;;9.35;5.47;;;;;;;;;;2105898;28;20048;-44
2022/04/23 06:05:20;;;;;;;11.10;5.45;;;;;;;;;;2105597;28;20447;-44
2022/04/23 06:06:22;;;;;;;10.43;4.90;;;;;;;;;;2105657;28;20568;-44
2022/04/23 06:07:24;;;;;;;6.90;4.80;;;;;;;;;;2105641;28;20151;-44
2022/04/23 06:08:25;;;;;;;9.52;5.03;;;;;;;;;;2105772;28;20119;-44